Time;durP1;ratioP1;P1;durP2;ratioP2;P2;SDS_P1;SDS_P2;PMS_P1;PMS_P2;Temp;Humidity;BMP_temperature;BMP_pressure;BME280_temperature;BME280_humidity;BME280_pressure;Samples;Min_cycle;Max_cycle;Signal;HPM_P1;HPM_P2
2022/03/01 00:00:08;;;;;;;;;45.00;32.00;;;;;0.36;72.19;101038.16;6278916;20;2502369;-43
2022/03/01 00:02:35;;;;;;;;;33.00;25.50;;;;;0.54;72.81;101032.91;6282145;20;2500336;-44
2022/03/01 00:05:06;;;;;;;;;32.33;27.33;;;;;-0.08;73.93;101036.28;6285933;20;3594161;-46
2022/03/01 00:07:33;;;;;;;;;29.00;25.00;;;;;0.12;73.48;101031.94;6280982;20;2500392;-48
2022/03/01 00:10:04;;;;;;;;;23.67;23.33;;;;;-0.09;73.44;101031.88;6283428;20;3565020;-48
2022/03/01 00:12:33;;;;;;;;;31.00;22.50;;;;;0.24;73.55;101038.13;6315517;20;2844034;-45
2022/03/01 00:15:03;;;;;;;;;22.67;18.67;;;;;0.39;72.62;101039.03;6285753;20;3555426;-43
2022/03/01 00:17:31;;;;;;;;;36.50;34.00;;;;;0.24;72.31;101032.84;6314084;20;2500317;-44
2022/03/01 00:19:59;;;;;;;;;27.33;22.00;;;;;0.13;73.52;101024.91;6284094;20;3565914;-42
2022/03/01 00:22:27;;;;;;;;;23.50;18.50;;;;;0.33;72.67;101032.88;6315948;20;2825262;-43
2022/03/01 00:24:56;;;;;;;;;21.33;15.33;;;;;0.37;73.31;101034.63;6277929;20;3543106;-45
2022/03/01 00:27:25;;;;;;;;;32.33;26.00;;;;;0.61;72.63;101023.25;6313465;20;3587755;-45
2022/03/01 00:29:54;;;;;;;;;27.33;25.33;;;;;0.93;72.39;101031.16;6280731;20;3588925;-42
2022/03/01 00:32:22;;;;;;;;;22.00;19.00;;;;;0.69;70.99;101024.13;6281272;20;3561684;-45
2022/03/01 00:34:51;;;;;;;;;30.33;23.67;;;;;0.87;70.00;101020.59;6284064;20;3575364;-45
2022/03/01 00:37:20;;;;;;;;;31.33;24.67;;;;;0.74;70.87;101013.53;6313321;20;3583694;-45
2022/03/01 00:39:50;;;;;;;;;30.83;28.00;;;;;0.55;70.52;101013.53;6303769;20;2843070;-44
2022/03/01 00:42:18;;;;;;;;;23.00;19.00;;;;;0.33;71.18;101012.63;6283525;20;2824262;-43
2022/03/01 00:44:46;;;;;;;;;19.00;19.00;;;;;0.56;71.16;101019.72;6284102;20;3549242;-42
2022/03/01 00:47:15;;;;;;;;;22.00;21.00;;;;;0.85;70.27;101017.06;6314611;20;3552494;-44
2022/03/01 00:49:44;;;;;;;;;22.00;17.67;;;;;0.59;70.67;101014.44;6313048;20;3551384;-44
2022/03/01 00:52:13;;;;;;;;;26.67;23.00;;;;;0.88;69.66;101017.94;6312818;20;3563777;-43
2022/03/01 00:54:41;;;;;;;;;23.33;22.33;;;;;0.85;69.10;101011.78;6315300;20;3560644;-47
2022/03/01 00:57:11;;;;;;;;;21.60;21.40;;;;;0.88;69.32;101009.13;6333802;20;2831512;-44
2022/03/01 00:59:40;;;;;;;;;29.67;23.33;;;;;0.79;69.58;101009.13;6282060;20;3579473;-44
2022/03/01 01:02:08;;;;;;;;;32.50;23.50;;;;;0.78;69.14;101015.31;6313954;20;2848182;-44
2022/03/01 01:04:37;;;;;;;;;27.67;22.67;;;;;0.78;68.78;101010.91;6284306;20;3564857;-44
2022/03/01 01:07:06;;;;;;;;;31.00;21.00;;;;;0.86;68.97;101009.13;6311671;20;3587823;-43
2022/03/01 01:09:35;;;;;;;;;25.67;20.00;;;;;0.67;69.20;101011.78;6311701;20;3561748;-44
2022/03/01 01:12:05;;;;;;;;;21.00;21.00;;;;;0.70;69.19;101009.16;6314787;20;2818282;-42
2022/03/01 01:14:33;;;;;;;;;23.50;22.00;;;;;0.67;69.44;101014.44;6284877;20;2833577;-44
2022/03/01 01:17:02;;;;;;;;;25.00;18.00;;;;;0.51;69.53;101005.63;6282251;20;3572254;-42
2022/03/01 01:19:31;;;;;;;;;21.00;17.67;;;;;0.64;69.42;101008.25;6313040;20;3549212;-43
2022/03/01 01:24:46;;;;;;;;;25.00;22.00;;;;;0.33;70.16;101001.19;6281299;20;3562760;-43
2022/03/01 01:27:15;;;;;;;;;23.00;16.67;;;;;0.51;69.88;101006.50;6312212;20;3552379;-42
2022/03/01 01:29:45;;;;;;;;;22.00;19.00;;;;;0.48;69.58;101006.50;6332561;20;2846226;-44
2022/03/01 01:32:16;;;;;;;;;21.33;18.67;;;;;0.31;69.76;101003.81;6313519;20;3546093;-43
2022/03/01 01:34:45;;;;;;;;;22.00;22.00;;;;;0.50;69.29;101002.09;6314594;20;3566958;-45
2022/03/01 01:37:13;;;;;;;;;29.00;23.33;;;;;0.36;70.15;100998.53;6280591;20;3571193;-42
2022/03/01 01:39:41;;;;;;;;;22.00;19.00;;;;;0.26;70.06;101004.69;6312270;20;2814875;-43
2022/03/01 01:42:10;;;;;;;;;28.33;19.00;;;;;0.38;70.12;101004.72;6280776;20;3563881;-43
2022/03/01 01:44:39;;;;;;;;;22.67;19.00;;;;;0.28;70.38;101002.94;6313554;20;3552324;-44
2022/03/01 01:47:29;;;;;;;;;21.00;16.67;;;;;0.10;70.22;101009.06;6312421;20;3554404;-43
2022/03/01 01:49:58;;;;;;;;;27.33;23.67;;;;;-0.23;71.48;101006.31;6311582;20;3564802;-47
2022/03/01 01:52:29;;;;;;;;;19.00;16.00;;;;;0.03;70.67;101005.53;6312504;20;3560747;-47
2022/03/01 01:54:58;;;;;;;;;26.00;19.33;;;;;0.11;70.53;101006.44;6281797;20;3556550;-44
2022/03/01 01:57:27;;;;;;;;;26.00;22.00;;;;;0.12;70.86;100997.63;6311027;20;3563825;-43
2022/03/01 01:59:57;;;;;;;;;33.00;24.00;;;;;0.07;71.07;100999.38;6309191;20;3592982;-45
2022/03/01 02:02:26;;;;;;;;;25.67;21.33;;;;;-0.22;71.65;100981.69;6312754;20;3560687;-43
2022/03/01 02:04:54;;;;;;;;;25.00;19.50;;;;;-0.12;71.50;100992.28;6310287;20;2830459;-43
2022/03/01 02:07:25;;;;;;;;;21.67;21.67;;;;;-0.32;72.55;100986.94;6278207;20;3556513;-43
2022/03/01 02:09:54;;;;;;;;;23.00;21.33;;;;;-0.11;71.40;100988.75;6308364;20;3557612;-43
2022/03/01 02:12:23;;;;;;;;;22.00;18.33;;;;;-0.35;71.83;100994.84;6312450;20;3559743;-44
2022/03/01 02:14:51;;;;;;;;;26.50;20.00;;;;;-0.04;71.16;100990.53;6315474;20;2845199;-44
2022/03/01 02:17:20;;;;;;;;;19.33;15.00;;;;;0.01;71.07;100991.44;6280190;20;3545037;-42
2022/03/01 02:19:51;;;;;;;;;22.00;18.00;;;;;-0.09;70.83;100992.28;6307624;20;3566959;-43
2022/03/01 02:22:19;;;;;;;;;23.00;17.50;;;;;-0.05;70.82;100996.72;6311971;20;2822165;-47
2022/03/01 02:24:47;;;;;;;;;22.50;21.00;;;;;-0.03;70.69;100997.56;6279538;20;2835694;-44
2022/03/01 02:27:16;;;;;;;;;23.33;16.33;;;;;-0.03;70.32;100997.56;6281797;20;3571095;-43
2022/03/01 02:29:44;;;;;;;;;19.00;15.33;;;;;-0.02;70.47;100988.81;6310159;20;3556512;-42
2022/03/01 02:32:13;;;;;;;;;17.67;17.67;;;;;-0.09;70.95;100981.72;6312783;20;3557658;-46
2022/03/01 02:34:42;;;;;;;;;21.00;19.00;;;;;-0.14;70.88;100980.84;6311298;20;3561709;-42
2022/03/01 02:37:11;;;;;;;;;26.80;18.00;;;;;-0.07;70.54;100985.25;6333839;20;2831669;-45
2022/03/01 02:39:40;;;;;;;;;24.67;17.33;;;;;-0.13;70.08;100979.94;6279224;20;3570127;-43
2022/03/01 02:42:10;;;;;;;;;19.00;15.40;;;;;0.04;70.04;100977.38;6334348;20;2811712;-44
2022/03/01 02:44:39;;;;;;;;;19.67;17.00;;;;;-0.13;71.00;100990.50;6282348;20;3558554;-45
2022/03/01 02:47:08;;;;;;;;;18.33;14.67;;;;;-0.38;71.46;100985.16;6310723;20;3542036;-43
2022/03/01 02:49:39;;;;;;;;;22.67;21.00;;;;;-0.25;71.63;100986.97;6316296;20;3561768;-43
2022/03/01 02:52:08;;;;;;;;;23.33;19.33;;;;;-0.25;70.75;100984.31;6315999;20;3582674;-43
2022/03/01 02:54:38;;;;;;;;;18.33;16.33;;;;;-0.03;70.38;100989.66;6284455;20;2814952;-46
2022/03/01 02:57:06;;;;;;;;;15.00;13.33;;;;;-0.05;70.23;100989.66;6315934;20;3539898;-43
2022/03/01 02:59:35;;;;;;;;;19.00;15.33;;;;;-0.17;70.35;100988.75;6313726;20;3551362;-45
2022/03/01 03:02:04;;;;;;;;;17.00;13.00;;;;;-0.18;70.28;100982.59;6317534;20;2818366;-42
2022/03/01 03:04:34;;;;;;;;;23.33;16.67;;;;;-0.19;70.46;100983.44;6285756;20;3562802;-43
2022/03/01 03:07:04;;;;;;;;;18.40;15.20;;;;;-0.16;69.74;100987.88;6335681;20;2822161;-44
2022/03/01 03:09:33;;;;;;;;;21.00;15.00;;;;;-0.13;70.03;100985.22;6282679;20;3554387;-42
2022/03/01 03:12:01;;;;;;;;;10.00;10.00;;;;;0.00;69.79;100989.69;6313589;20;2760792;-42
2022/03/01 03:14:31;;;;;;;;;15.60;10.60;;;;;0.05;69.54;100995.84;6338233;20;2780447;-42
2022/03/01 03:16:59;;;;;;;;;17.67;17.67;;;;;-0.03;69.28;100997.56;6282849;20;2826473;-42
2022/03/01 03:19:27;;;;;;;;;21.00;14.00;;;;;-0.22;69.65;100989.59;6311796;20;2803510;-45
2022/03/01 03:21:57;;;;;;;;;20.60;16.20;;;;;-0.19;69.61;100990.50;6307850;20;2824389;-44
2022/03/01 03:24:25;;;;;;;;;18.00;14.00;;;;;0.03;68.95;100992.34;6285192;20;2795419;-42
2022/03/01 03:26:53;;;;;;;;;21.00;14.50;;;;;-0.02;68.75;100994.09;6286667;20;2800285;-42
2022/03/01 03:29:21;;;;;;;;;21.00;16.00;;;;;-0.13;69.27;100995.78;6284838;20;2822755;-42
2022/03/01 03:31:57;;;;;;;;;18.14;14.43;;;;;-0.56;70.11;100996.50;6325378;20;1814862;-45
2022/03/01 03:34:26;;;;;;;;;15.00;13.50;;;;;-0.06;69.19;100998.44;6314931;20;2804422;-45
2022/03/01 03:36:57;;;;;;;;;15.57;14.57;;;;;-0.16;69.22;100993.13;6323279;20;1827437;-48
2022/03/01 03:39:28;;;;;;;;;17.33;15.50;;;;;-0.24;69.62;100993.13;6356761;20;1829894;-43
2022/03/01 03:41:56;;;;;;;;;18.00;15.00;;;;;0.03;69.20;101002.91;6317092;20;2818116;-43
2022/03/01 03:44:24;;;;;;;;;11.00;11.00;;;;;-0.04;69.07;100990.53;6285637;20;2789913;-43
2022/03/01 03:46:53;;;;;;;;;18.00;16.00;;;;;-0.23;69.56;100993.13;6317140;20;2824209;-43
2022/03/01 03:49:22;;;;;;;;;14.50;14.00;;;;;-0.08;69.14;100988.75;6285031;20;2807688;-42
2022/03/01 03:51:50;;;;;;;;;15.00;13.00;;;;;-0.25;69.24;100989.59;6284442;20;2789842;-43
2022/03/01 03:54:19;;;;;;;;;19.67;14.33;;;;;-0.01;68.97;101001.09;6282135;20;3539863;-42
2022/03/01 03:56:46;;;;;;;;;17.00;14.00;;;;;-0.12;69.01;100992.28;6314293;20;2802498;-42
2022/03/01 03:59:14;;;;;;;;;15.00;14.00;;;;;-0.06;69.24;100982.63;6280976;20;2796110;-42
2022/03/01 04:01:42;;;;;;;;;17.00;13.50;;;;;-0.44;69.47;100987.78;6280269;20;2807644;-42
2022/03/01 04:04:11;;;;;;;;;14.00;14.00;;;;;-0.35;70.50;100985.16;6285956;20;2811712;-43
2022/03/01 04:06:40;;;;;;;;;19.00;13.00;;;;;-0.72;72.40;100985.00;6283410;20;2819055;-42
2022/03/01 04:09:08;;;;;;;;;13.00;13.00;;;;;-0.92;72.51;100981.38;6313781;20;2790351;-42
2022/03/01 04:11:36;;;;;;;;;22.00;16.00;;;;;-0.75;73.44;100982.34;6282498;20;2830453;-43
2022/03/01 04:14:04;;;;;;;;;23.33;17.67;;;;;-0.56;71.91;100980.66;6285978;20;3583586;-43
2022/03/01 04:16:33;;;;;;;;;22.33;15.00;;;;;-0.49;71.50;100984.22;6283473;20;3552319;-44
2022/03/01 04:19:04;;;;;;;;;16.60;14.40;;;;;-0.63;71.37;100978.91;6338259;20;2816963;-43
2022/03/01 04:21:32;;;;;;;;;10.00;10.00;;;;;-0.45;70.96;100981.63;6282494;20;3498147;-42
2022/03/01 04:24:03;;;;;;;;;15.67;11.00;;;;;-0.38;70.73;100982.50;6320285;20;1831755;-42
2022/03/01 04:26:31;;;;;;;;;12.50;11.50;;;;;-0.49;70.16;100981.59;6284755;20;2798171;-41
2022/03/01 04:28:59;;;;;;;;;11.00;10.75;;;;;-0.42;69.85;100978.13;6300315;20;1816448;-41
2022/03/01 04:31:29;;;;;;;;;17.50;12.00;;;;;-0.53;70.47;100982.44;6315220;20;2770318;-43
2022/03/01 04:33:57;;;;;;;;;14.00;12.50;;;;;-0.47;70.58;100982.50;6282166;20;2804524;-43
2022/03/01 04:36:25;;;;;;;;;19.00;16.00;;;;;-0.59;70.53;100979.78;6281309;20;2813815;-43
2022/03/01 04:38:53;;;;;;;;;18.00;13.00;;;;;-0.38;70.08;100973.72;6283523;20;2800265;-42
2022/03/01 04:41:23;;;;;;;;;12.33;11.33;;;;;-0.37;69.65;100973.75;6317039;20;1819039;-45
2022/03/01 04:43:51;;;;;;;;;17.00;13.50;;;;;-0.25;69.15;100971.13;6284514;20;2792961;-45
2022/03/01 04:46:21;;;;;;;;;14.20;14.00;;;;;-0.40;69.33;100976.34;6304443;20;2791079;-46
2022/03/01 04:48:50;;;;;;;;;13.00;10.00;;;;;-0.67;70.61;100983.25;6299757;20;1831631;-47
2022/03/01 04:51:21;;;;;;;;;14.67;11.00;;;;;-0.39;69.49;100983.41;6314950;20;3509646;-47
2022/03/01 04:53:50;;;;;;;;;21.00;13.50;;;;;-0.70;69.89;100983.25;6282007;20;2816089;-47
2022/03/01 04:56:19;;;;;;;;;10.75;10.25;;;;;-0.42;69.62;100978.13;6297297;20;1831581;-48
2022/03/01 04:58:47;;;;;;;;;22.50;13.00;;;;;-0.40;69.57;100981.63;6315017;20;2818016;-48
2022/03/01 05:01:16;;;;;;;;;21.00;14.33;;;;;-0.75;70.04;100984.97;6279332;20;3558545;-48
2022/03/01 05:03:47;;;;;;;;;17.83;13.83;;;;;-0.75;70.20;100981.47;6352938;20;1829447;-48
2022/03/01 05:06:17;;;;;;;;;20.50;18.33;;;;;-0.70;69.74;100982.38;6301479;20;2843993;-49
2022/03/01 05:08:46;;;;;;;;;21.00;20.00;;;;;-0.35;69.06;100979.88;6314383;20;3565321;-50
2022/03/01 05:11:17;;;;;;;;;14.50;11.50;;;;;-0.33;69.23;100977.25;6353543;20;1821117;-46
2022/03/01 05:13:45;;;;;;;;;12.00;10.50;;;;;-0.60;69.89;100984.19;6303252;20;1839725;-47
2022/03/01 05:16:14;;;;;;;;;15.50;13.00;;;;;-0.50;69.57;100985.09;6312847;20;2812224;-50
2022/03/01 05:18:41;;;;;;;;;17.00;15.50;;;;;-0.59;69.32;100982.44;6283587;20;2820075;-49
2022/03/01 05:21:09;;;;;;;;;16.00;10.00;;;;;-0.34;68.73;100976.38;6280337;20;3524339;-51
2022/03/01 05:23:38;;;;;;;;;10.50;9.50;;;;;-0.78;69.80;100979.69;6329188;20;1840113;-48
2022/03/01 05:26:11;;;;;;;;;16.00;14.00;;;;;-0.81;69.30;100976.16;6313602;20;2814951;-48
2022/03/01 05:28:39;;;;;;;;;16.00;14.00;;;;;-0.60;70.04;100981.56;6282671;20;2813897;-52
2022/03/01 05:31:08;;;;;;;;;18.75;11.00;;;;;-0.68;69.88;100986.78;6298601;20;1840106;-47
2022/03/01 05:33:36;;;;;;;;;4.50;4.50;;;;;-0.95;69.74;100994.50;6314356;20;2751293;-51
2022/03/01 05:36:04;;;;;;;;;20.50;11.00;;;;;-0.76;70.37;100988.50;6311413;20;2812783;-47
2022/03/01 05:38:33;;;;;;;;;11.25;7.25;;;;;-0.61;69.52;100984.16;6298644;20;1829070;-47
2022/03/01 05:41:01;;;;;;;;;16.50;14.00;;;;;-0.53;69.49;100985.09;6313132;20;2815967;-49
2022/03/01 05:43:29;;;;;;;;;18.00;13.00;;;;;-0.37;68.94;100993.94;6282186;20;2798579;-48
2022/03/01 05:45:57;;;;;;;;;11.00;10.50;;;;;-0.32;69.23;100989.56;6280368;20;2772158;-49
2022/03/01 05:48:28;;;;;;;;;18.86;16.43;;;;;-0.24;68.62;100985.19;6316695;20;1823246;-49
2022/03/01 05:51:01;;;;;;;;;22.83;18.67;;;;;0.39;66.81;100985.34;6335686;20;2836746;-50
2022/03/01 05:53:28;;;;;;;;;21.50;13.50;;;;;-0.06;67.91;100982.63;6311288;20;2807729;-50
2022/03/01 05:55:57;;;;;;;;;19.00;14.00;;;;;0.18;67.01;100986.19;6280130;20;2800265;-49
2022/03/01 05:58:26;;;;;;;;;20.80;16.40;;;;;-0.17;67.41;100994.03;6301023;20;2820045;-51
2022/03/01 06:00:55;;;;;;;;;23.67;15.67;;;;;0.12;67.56;100992.34;6277414;20;2814860;-50
2022/03/01 06:03:23;;;;;;;;;18.00;15.50;;;;;0.06;67.17;100984.41;6312687;20;2803502;-51
2022/03/01 06:05:52;;;;;;;;;12.25;11.00;;;;;0.46;66.04;100988.88;6295199;20;1830572;-49
2022/03/01 06:08:23;;;;;;;;;13.67;12.83;;;;;0.34;66.42;100988.00;6355526;20;1817205;-52
2022/03/01 06:10:51;;;;;;;;;11.00;11.00;;;;;0.33;65.99;100988.84;6284963;20;2789838;-53
2022/03/01 06:13:19;;;;;;;;;15.00;13.00;;;;;0.25;66.40;100987.09;6284643;20;2783642;-51
2022/03/01 06:15:48;;;;;;;;;17.50;15.00;;;;;0.13;67.13;100975.63;6282686;20;2816110;-53
2022/03/01 06:18:18;;;;;;;;;12.00;12.00;;;;;0.67;65.70;100982.72;6308867;20;2794027;-47
2022/03/01 06:20:48;;;;;;;;;17.60;14.60;;;;;0.52;66.02;100981.81;6310133;20;2805451;-50
2022/03/01 06:23:16;;;;;;;;;14.25;11.50;;;;;0.42;66.35;100980.06;6307493;20;1827363;-49
2022/03/01 06:25:45;;;;;;;;;12.50;10.00;;;;;0.70;66.13;100983.59;6337265;20;1825456;-47
2022/03/01 06:28:13;;;;;;;;;15.00;13.00;;;;;0.56;66.23;100974.78;6319211;20;2789058;-48
2022/03/01 06:30:41;;;;;;;;;19.50;12.50;;;;;0.83;65.66;100976.53;6290400;20;2801288;-48
2022/03/01 06:33:10;;;;;;;;;16.00;11.75;;;;;0.91;65.53;100985.34;6305003;20;1839953;-49
2022/03/01 06:35:38;;;;;;;;;15.00;12.50;;;;;1.06;66.08;100982.69;6322029;20;2791955;-52
2022/03/01 06:38:06;;;;;;;;;12.00;12.00;;;;;1.33;64.46;100974.69;6286868;20;2791004;-50
2022/03/01 06:40:34;;;;;;;;;16.00;12.00;;;;;1.26;64.33;100979.09;6287461;20;2798247;-50
2022/03/01 06:43:05;;;;;;;;;15.80;13.40;;;;;1.30;64.78;100980.84;6310242;20;2785766;-47
2022/03/01 06:45:32;;;;;;;;;13.00;13.00;;;;;1.01;64.29;100979.16;6289580;20;2793991;-48
2022/03/01 06:48:00;;;;;;;;;13.00;11.50;;;;;1.66;63.60;100976.28;6291147;20;2772216;-49
2022/03/01 06:50:28;;;;;;;;;18.00;17.00;;;;;1.56;62.89;100974.59;6286968;20;2816948;-51
2022/03/01 06:52:57;;;;;;;;;14.25;10.00;;;;;1.33;62.79;100978.19;6304031;20;1837784;-51
2022/03/01 06:55:25;;;;;;;;;15.00;12.50;;;;;1.84;63.04;100983.28;6321148;20;2781487;-53
2022/03/01 06:57:53;;;;;;;;;12.50;12.00;;;;;2.08;61.18;100969.03;6285646;20;2774242;-54
2022/03/01 07:00:23;;;;;;;;;14.00;10.50;;;;;2.59;60.86;100978.38;6289481;20;2782559;-52
2022/03/01 07:02:54;;;;;;;;;11.67;11.17;;;;;2.95;59.22;100978.06;6340759;20;1808656;-52
2022/03/01 07:05:22;;;;;;;;;13.00;12.00;;;;;4.90;54.15;100975.44;6290137;20;2791931;-51
2022/03/01 07:07:50;;;;;;;;;15.00;9.00;;;;;5.61;51.52;100969.63;6291999;20;2772494;-49
2022/03/01 07:10:18;;;;;;;;;14.00;13.00;;;;;4.06;54.45;100978.53;6286663;20;2812906;-51
2022/03/01 07:12:49;;;;;;;;;11.80;10.80;;;;;6.13;50.92;100976.56;6346683;20;2781590;-51
2022/03/01 07:15:17;;;;;;;;;18.00;14.00;;;;;6.26;50.55;100970.03;6290244;20;2825371;-54
2022/03/01 07:17:47;;;;;;;;;13.00;10.50;;;;;5.62;51.57;100976.75;6288107;20;2788863;-51
2022/03/01 07:20:15;;;;;;;;;13.50;11.00;;;;;4.31;54.32;100971.06;6289080;20;2788798;-52
2022/03/01 07:22:43;;;;;;;;;10.00;10.00;;;;;3.40;58.35;100978.50;6287166;20;2786722;-51
2022/03/01 07:25:14;;;;;;;;;14.00;12.00;;;;;3.80;57.62;100980.66;6290794;20;2793991;-52
2022/03/01 07:27:54;;;;;;;;;13.00;12.00;;;;;2.82;58.22;100975.53;6289166;20;2779428;-49
2022/03/01 07:30:25;;;;;;;;;23.00;19.00;;;;;3.11;59.11;100971.72;6284902;20;2508573;-53
2022/03/01 07:32:57;;;;;;;;;22.00;18.33;;;;;3.53;58.15;100974.81;6288019;20;3565247;-51
2022/03/01 07:35:27;;;;;;;;;65.67;48.67;;;;;3.50;58.70;100969.50;6320671;20;3615215;-49
2022/03/01 07:37:56;;;;;;;;;14.50;13.00;;;;;3.76;56.97;100968.31;6287503;20;2786696;-50
2022/03/01 07:40:26;;;;;;;;;17.00;14.00;;;;;3.80;56.64;100973.56;6285492;20;2821079;-52
2022/03/01 07:42:55;;;;;;;;;19.00;13.00;;;;;3.18;57.04;100973.41;6287594;20;2797269;-51
2022/03/01 07:45:24;;;;;;;;;16.33;15.00;;;;;4.01;55.75;100972.41;6318473;20;3558560;-49
2022/03/01 07:47:53;;;;;;;;;14.25;6.00;;;;;3.92;56.35;100962.78;6309414;20;1830657;-50
2022/03/01 07:50:22;;;;;;;;;7.00;5.00;;;;;4.32;55.25;100966.66;6316067;20;2750243;-51
2022/03/01 07:52:51;;;;;;;;;11.00;9.00;;;;;4.60;55.15;100967.94;6320611;20;2760735;-49
2022/03/01 07:55:21;;;;;;;;;13.00;13.00;;;;;4.02;55.83;100968.84;6316004;20;2789890;-51
2022/03/01 07:57:51;;;;;;;;;24.00;16.00;;;;;4.33;54.75;100963.06;6288231;20;2830533;-49
2022/03/01 08:00:21;;;;;;;;;11.67;11.67;;;;;4.04;54.61;100961.72;6284252;20;3498278;-49
2022/03/01 08:02:54;;;;;;;;;16.00;15.00;;;;;3.45;56.40;100966.03;6319175;20;2825391;-50
2022/03/01 08:05:24;;;;;;;;;19.67;19.67;;;;;4.05;54.94;100963.47;6288064;20;3571069;-51
2022/03/01 08:07:57;;;;;;;;;11.00;8.00;;;;;4.51;53.59;100962.78;6288180;20;2765866;-49
2022/03/01 08:10:26;;;;;;;;;9.50;9.50;;;;;4.33;53.53;100950.66;6296455;20;2757538;-47
2022/03/01 08:12:57;;;;;;;;;10.67;8.67;;;;;4.44;54.56;100953.16;6328852;20;1806595;-51
2022/03/01 08:15:28;;;;;;;;;9.00;7.67;;;;;4.29;54.68;100958.69;6330972;20;1808589;-47
2022/03/01 08:17:58;;;;;;;;;29.00;25.50;;;;;4.64;54.41;100958.16;6286529;20;2500235;-51
2022/03/01 08:20:28;;;;;;;;;29.00;26.50;;;;;5.11;52.90;100964.41;6286101;20;2853378;-53
2022/03/01 08:22:58;;;;;;;;;20.00;18.00;;;;;5.67;52.06;100956.22;6284868;20;3554449;-52
2022/03/01 08:25:27;;;;;;;;;13.00;10.50;;;;;4.75;52.53;100961.50;6316728;20;2773186;-49
2022/03/01 08:27:58;;;;;;;;;35.00;27.50;;;;;5.31;51.62;100960.50;6285383;20;2500352;-52
2022/03/01 08:30:26;;;;;;;;;7.50;7.50;;;;;5.02;51.69;100949.47;6286968;20;2746099;-52
2022/03/01 08:32:58;;;;;;;;;12.00;7.00;;;;;5.02;52.24;100953.94;6290441;20;2504459;-51
2022/03/01 08:35:27;;;;;;;;;16.50;16.00;;;;;4.50;52.09;100950.41;6289715;20;2810890;-54
2022/03/01 08:37:58;;;;;;;;;15.00;13.00;;;;;5.01;51.51;100955.72;6288160;20;2799221;-51
2022/03/01 08:40:32;;;;;;;;;10.57;10.00;;;;;5.50;50.65;100957.44;6326518;20;1821111;-53
2022/03/01 08:43:00;;;;;;;;;5.00;5.00;;;;;5.26;51.46;100947.25;6318990;20;3465894;-48
2022/03/01 08:45:28;;;;;;;;;13.50;11.00;;;;;5.48;49.88;100951.25;6284341;20;2796209;-51
2022/03/01 08:47:56;;;;;;;;;17.50;15.00;;;;;5.53;50.73;100950.28;6290002;20;2810704;-45
2022/03/01 08:50:24;;;;;;;;;26.67;24.00;;;;;5.90;49.27;100939.72;6284867;20;3596076;-47
2022/03/01 08:53:14;;;;;;;;;8.50;7.00;;;;;5.68;49.90;100939.31;6308660;20;1829567;-45
2022/03/01 08:55:42;;;;;;;;;10.50;9.00;;;;;5.09;50.35;100941.41;6318162;20;2763784;-47
2022/03/01 08:58:12;;;;;;;;;13.50;11.25;;;;;5.42;48.65;100932.72;6307334;20;1814922;-48
2022/03/01 09:00:41;;;;;;;;;2.50;2.50;;;;;5.49;44.93;100944.16;6337829;20;1813822;-44
2022/03/01 09:03:09;;;;;;;;;4.00;4.00;;;;;5.44;42.83;100935.38;6317972;20;3450359;-46
2022/03/01 09:05:58;;;;;;;;;6.25;5.00;;;;;5.27;43.58;100925.06;6306493;20;1819135;-50
2022/03/01 09:08:32;;;;;;;;;5.00;3.00;;;;;5.25;42.30;100924.22;6335266;20;1818063;-45
2022/03/01 09:11:01;;;;;;;;;5.00;3.00;;;;;5.52;42.04;100924.56;6338704;20;1821149;-47
2022/03/01 09:13:31;;;;;;;;;6.00;3.50;;;;;5.90;42.17;100921.06;6337582;20;1825348;-45
2022/03/01 09:15:59;;;;;;;;;9.25;7.25;;;;;5.65;42.12;100918.94;6335123;20;1818772;-49
2022/03/01 09:18:28;;;;;;;;;6.00;6.00;;;;;5.40;42.31;100907.94;6319832;20;2754464;-45
2022/03/01 09:20:55;;;;;;;;;3.00;2.00;;;;;5.86;41.89;100922.03;6319059;20;3439807;-45
2022/03/01 09:23:23;;;;;;;;;9.00;6.50;;;;;6.51;40.76;100919.66;6318618;20;2753577;-44
2022/03/01 09:25:51;;;;;;;;;10.00;6.00;;;;;6.81;40.21;100909.97;6316823;20;2771126;-45
2022/03/01 09:28:19;;;;;;;;;18.50;15.00;;;;;5.94;40.79;100912.97;6286527;20;2813798;-50
2022/03/01 09:30:48;;;;;;;;;6.75;6.00;;;;;5.97;40.61;100914.72;6303123;20;1819032;-45
2022/03/01 09:33:17;;;;;;;;;3.00;3.00;;;;;5.83;39.45;100907.00;6336839;20;1825457;-46
2022/03/01 09:35:46;;;;;;;;;5.00;5.00;;;;;6.26;38.79;100911.34;6334295;20;1822198;-47
2022/03/01 09:38:14;;;;;;;;;1.00;1.00;;;;;5.67;39.48;100906.47;6318672;20;2741982;-46
2022/03/01 09:40:49;;;;;;;;;8.25;6.00;;;;;5.72;39.43;100898.38;6335288;20;1819072;-45
2022/03/01 09:43:18;;;;;;;;;7.75;5.25;;;;;6.21;38.54;100905.25;6336923;20;1823256;-46
2022/03/01 09:45:46;;;;;;;;;6.00;6.00;;;;;6.17;38.07;100900.06;6336509;20;1825404;-45
2022/03/01 09:48:16;;;;;;;;;3.00;3.00;;;;;5.86;38.68;100901.59;6338189;20;1819047;-45
2022/03/01 09:50:46;;;;;;;;;6.00;6.00;;;;;5.81;38.57;100898.16;6319527;20;2737773;-46
2022/03/01 09:53:15;;;;;;;;;5.00;3.00;;;;;6.39;38.44;100890.59;6336053;20;1812890;-44
2022/03/01 09:55:43;;;;;;;;;14.00;12.00;;;;;7.00;38.58;100899.69;6315896;20;2794046;-45
2022/03/01 09:58:13;;;;;;;;;2.50;2.50;;;;;6.28;37.34;100892.66;6304935;20;1815429;-46
2022/03/01 10:00:42;;;;;;;;;2.75;1.00;;;;;6.48;37.23;100884.19;6336390;20;1814275;-45
2022/03/01 10:03:16;;;;;;;;;16.00;12.67;;;;;6.52;36.41;100884.03;6314914;20;3554432;-45
2022/03/01 10:05:45;;;;;;;;;6.00;6.00;;;;;6.74;37.05;100887.03;6336577;20;1819156;-45
2022/03/01 10:08:24;;;;;;;;;3.00;3.00;;;;;7.16;37.29;100868.09;6319725;20;3447274;-44
2022/03/01 10:10:54;;;;;;;;;1.00;1.00;;;;;7.25;36.60;100870.47;6340466;20;1827386;-45
2022/03/01 10:13:27;;;;;;;;;6.00;6.00;;;;;6.62;35.10;100863.34;6318543;20;2739917;-46
2022/03/01 10:16:13;;;;;;;;;3.00;3.00;;;;;7.60;34.69;100865.00;6304909;20;1820142;-45
2022/03/01 10:18:55;;;;;;;;;3.67;3.67;;;;;7.18;34.82;100860.88;6316688;20;3458632;-45
2022/03/01 10:21:26;;;;;;;;;9.25;7.25;;;;;6.85;34.08;100845.84;6300521;20;1820054;-46
2022/03/01 10:23:58;;;;;;;;;14.33;8.00;;;;;7.38;34.43;100846.09;6315452;20;2775309;-46
2022/03/01 10:26:31;;;;;;;;;5.25;4.00;;;;;6.74;34.96;100839.00;6333451;20;1814943;-49
2022/03/01 10:29:00;;;;;;;;;2.00;2.00;;;;;7.21;35.06;100836.78;6317686;20;2743990;-47
2022/03/01 10:31:33;;;;;;;;;12.00;12.00;;;;;7.19;37.16;100835.06;6282908;20;2500288;-47
2022/03/01 10:34:11;;;;;;;;;8.00;7.00;;;;;7.23;37.39;100826.03;6303998;20;1814912;-45
2022/03/01 10:36:48;;;;;;;;;9.50;7.00;;;;;7.70;37.21;100831.75;6317512;20;2758628;-44
2022/03/01 10:39:25;;;;;;;;;10.00;7.00;;;;;7.78;37.53;100824.34;6285289;20;2753408;-44
2022/03/01 10:41:53;;;;;;;;;12.00;8.00;;;;;7.71;37.63;100822.78;6287806;20;2760802;-44
2022/03/01 10:44:29;;;;;;;;;15.00;11.00;;;;;8.53;34.90;100821.88;6306580;20;1925410;-44
2022/03/01 10:47:03;;;;;;;;;6.00;6.00;;;;;8.32;35.76;100806.50;6316514;20;2741902;-45
2022/03/01 10:49:35;;;;;;;;;12.00;8.50;;;;;8.45;35.86;100805.22;6312574;20;2762287;-44
2022/03/01 10:52:12;;;;;;;;;21.67;19.00;;;;;7.79;36.72;100804.69;6282679;20;3561728;-47
2022/03/01 10:54:44;;;;;;;;;12.50;11.00;;;;;8.08;36.70;100801.09;6285730;20;2794200;-48
2022/03/01 10:57:24;;;;;;;;;7.25;7.25;;;;;8.28;36.13;100794.19;6303726;20;1807593;-45
2022/03/01 10:59:53;;;;;;;;;11.50;11.50;;;;;8.50;36.23;100791.66;6314464;20;2782579;-49
2022/03/01 11:02:21;;;;;;;;;9.00;7.00;;;;;7.83;36.12;100789.44;6316832;20;2752498;-47
2022/03/01 11:04:55;;;;;;;;;10.80;8.80;;;;;8.11;35.72;100776.91;6307099;20;2763955;-47
2022/03/01 11:07:29;;;;;;;;;8.00;8.00;;;;;7.80;35.32;100785.06;6332185;20;1803591;-46
2022/03/01 11:10:01;;;;;;;;;38.33;32.33;;;;;7.93;34.55;100774.84;6315330;20;3601271;-49
2022/03/01 11:12:32;;;;;;;;;25.50;23.50;;;;;7.97;35.45;100771.13;6311118;20;3591943;-45
2022/03/01 11:15:38;;;;;;;;;37.67;33.00;;;;;7.98;35.71;100756.84;6283525;20;2871200;-45